createdAt,value
2022-08-14T00:02:01.427Z,99988.78
2022-08-14T00:05:05.534Z,99968.91
2022-08-14T00:08:14.484Z,99965.53
2022-08-14T00:11:17.000Z,99958.06
2022-08-14T00:14:18.705Z,99964.44
2022-08-14T00:17:20.130Z,99957.69
2022-08-14T00:20:30.452Z,99959.97
2022-08-14T00:23:37.441Z,99952.44
2022-08-14T00:26:39.910Z,99941.56
2022-08-14T00:29:42.891Z,99947.28
2022-08-14T00:32:56.394Z,99944.50
2022-08-14T00:36:35.628Z,99944.16
2022-08-14T00:39:20.118Z,99939.25
2022-08-14T00:42:52.467Z,99941.94
2022-08-14T00:45:52.763Z,99941.63
2022-08-14T00:48:54.403Z,99938.38
2022-08-14T00:52:00.335Z,99936.84
2022-08-14T00:55:02.670Z,99939.25
2022-08-14T00:58:32.612Z,99933.59
2022-08-14T01:01:35.919Z,99941.84
2022-08-14T01:04:54.425Z,99941.59
2022-08-14T01:07:58.408Z,99938.66
2022-08-14T01:11:00.060Z,99929.72
2022-08-14T01:14:18.290Z,99922.25
2022-08-14T01:17:49.250Z,99923.41
2022-08-14T01:21:03.782Z,99921.00
2022-08-14T01:24:10.896Z,99922.91
2022-08-14T01:27:19.755Z,99913.31
2022-08-14T01:30:24.721Z,99908.22
2022-08-14T01:33:30.892Z,99903.66
2022-08-14T01:36:54.012Z,99888.81
2022-08-14T01:39:55.464Z,99878.34
2022-08-14T01:42:57.100Z,99880.03
2022-08-14T01:46:06.719Z,99876.56
2022-08-14T01:49:11.729Z,99873.13
2022-08-14T01:52:34.012Z,99871.16
2022-08-14T01:55:38.760Z,99882.47
2022-08-14T01:58:57.595Z,99879.97
2022-08-14T02:02:03.858Z,99883.81
2022-08-14T02:05:05.696Z,99885.94
2022-08-14T02:08:10.048Z,99878.47
2022-08-14T02:11:24.371Z,99871.69
2022-08-14T02:14:31.658Z,99861.38
2022-08-14T02:17:33.743Z,99866.63
2022-08-14T02:20:36.068Z,99875.31
2022-08-14T02:23:37.860Z,99865.44
2022-08-14T02:26:58.354Z,99861.44
2022-08-14T02:30:09.468Z,99853.88
2022-08-14T02:33:15.182Z,99854.88
2022-08-14T02:37:03.510Z,99847.38
2022-08-14T02:39:42.746Z,99844.81
2022-08-14T02:42:54.996Z,99847.50
2022-08-14T02:46:00.071Z,99840.16
2022-08-14T02:49:06.165Z,99832.38
2022-08-14T02:52:26.793Z,99825.56
2022-08-14T02:55:32.915Z,99822.72
2022-08-14T02:58:38.548Z,99821.88
2022-08-14T03:01:50.861Z,99811.69
2022-08-14T03:04:55.966Z,99818.34
2022-08-14T03:08:15.881Z,99814.25
2022-08-14T03:11:18.629Z,99824.16
2022-08-14T03:14:22.161Z,99822.06
2022-08-14T03:17:24.568Z,99819.91
2022-08-14T03:20:28.597Z,99823.91
2022-08-14T03:23:34.437Z,99820.81
2022-08-14T03:26:44.872Z,99829.72
2022-08-14T03:29:46.357Z,99832.28
2022-08-14T03:32:49.737Z,99826.06
2022-08-14T03:36:05.677Z,99830.19
2022-08-14T03:39:22.114Z,99826.53
2022-08-14T03:42:25.187Z,99833.50
2022-08-14T03:45:47.908Z,99826.97
2022-08-14T03:48:50.193Z,99830.50
2022-08-14T03:51:55.852Z,99827.06
2022-08-14T03:54:59.888Z,99819.72
2022-08-14T03:58:01.303Z,99822.09
2022-08-14T04:01:02.738Z,99822.81
2022-08-14T04:04:06.123Z,99825.38
2022-08-14T04:07:10.712Z,99823.97
2022-08-14T04:10:12.771Z,99823.97
2022-08-14T04:13:19.147Z,99823.69
2022-08-14T04:16:25.317Z,99826.78
2022-08-14T04:19:36.458Z,99828.78
2022-08-14T04:22:43.449Z,99821.66
2022-08-14T04:25:45.833Z,99823.09
2022-08-14T04:29:07.269Z,99817.81
2022-08-14T04:33:00.412Z,99819.38
2022-08-14T04:35:55.248Z,99828.00
2022-08-14T04:39:17.245Z,99829.28
2022-08-14T04:42:37.321Z,99826.22
2022-08-14T04:45:42.814Z,99821.16
2022-08-14T04:48:51.404Z,99819.75
2022-08-14T04:51:57.655Z,99822.00
2022-08-14T04:55:04.933Z,99820.03
2022-08-14T04:58:07.025Z,99831.03
2022-08-14T05:01:25.953Z,99834.69
2022-08-14T05:04:27.394Z,99829.91
2022-08-14T05:07:53.784Z,99838.66
2022-08-14T05:10:55.907Z,99837.06
2022-08-14T05:14:16.114Z,99831.81
2022-08-14T05:17:18.829Z,99828.91
2022-08-14T05:21:55.938Z,99828.91
2022-08-14T05:23:42.148Z,99830.59
2022-08-14T05:26:46.707Z,99825.78
2022-08-14T05:29:48.765Z,99811.81
2022-08-14T05:32:50.233Z,99815.50
2022-08-14T05:35:53.366Z,99820.75
2022-08-14T05:38:55.412Z,99826.25
2022-08-14T05:41:56.863Z,99830.19
2022-08-14T05:44:58.606Z,99826.38
2022-08-14T05:48:05.596Z,99822.03
2022-08-14T05:51:11.012Z,99821.16
2022-08-14T05:54:26.707Z,99820.63
2022-08-14T05:57:28.777Z,99822.84
2022-08-14T06:00:39.096Z,99814.09
2022-08-14T06:03:41.194Z,99820.44
2022-08-14T06:06:46.303Z,99808.56
2022-08-14T06:09:52.400Z,99804.03
2022-08-14T06:12:56.455Z,99806.41
2022-08-14T06:15:59.063Z,99812.63
2022-08-14T06:19:00.727Z,99809.25
2022-08-14T06:22:02.273Z,99810.91
2022-08-14T06:25:04.682Z,99807.53
2022-08-14T06:28:07.529Z,99803.97
2022-08-14T06:31:28.961Z,99793.59
2022-08-14T06:35:11.838Z,99779.13
2022-08-14T06:37:55.050Z,99775.94
2022-08-14T06:40:56.463Z,99765.66
2022-08-14T06:43:59.612Z,99756.47
2022-08-14T06:47:04.437Z,99749.56
2022-08-14T06:50:10.271Z,99745.31
2022-08-14T06:53:19.737Z,99750.59
2022-08-14T06:56:21.193Z,99752.72
2022-08-14T06:59:23.164Z,99744.56
2022-08-14T07:02:43.696Z,99739.47
2022-08-14T07:05:55.382Z,99733.59
2022-08-14T07:08:57.707Z,99738.84
2022-08-14T07:12:00.525Z,99731.66
2022-08-14T07:15:04.675Z,99736.63
2022-08-14T07:18:09.019Z,99748.13
2022-08-14T07:21:10.720Z,99742.47
2022-08-14T07:24:22.084Z,99744.59
2022-08-14T07:27:27.951Z,99745.59
2022-08-14T07:30:35.920Z,99736.38
2022-08-14T07:33:51.114Z,99728.78
2022-08-14T07:37:00.786Z,99743.00
2022-08-14T07:40:05.779Z,99739.34
2022-08-14T07:43:14.057Z,99747.41
2022-08-14T07:46:21.293Z,99740.88
2022-08-14T07:49:31.719Z,99749.09
2022-08-14T07:52:33.771Z,99755.59
2022-08-14T07:55:36.704Z,99757.97
2022-08-14T07:58:51.649Z,99753.22
2022-08-14T08:01:57.409Z,99750.84
2022-08-14T08:05:00.517Z,99758.56
2022-08-14T08:08:03.779Z,99749.50
2022-08-14T08:11:14.804Z,99756.69
2022-08-14T08:14:18.092Z,99751.63
2022-08-14T08:17:20.369Z,99758.13
2022-08-14T08:20:27.442Z,99749.69
2022-08-14T08:23:39.978Z,99746.72
2022-08-14T08:26:42.369Z,99753.03
2022-08-14T08:29:51.121Z,99754.03
2022-08-14T08:32:54.812Z,99743.41
2022-08-14T08:36:01.746Z,99742.91
2022-08-14T08:39:18.342Z,99731.47
2022-08-14T08:42:31.755Z,99732.22
2022-08-14T08:45:57.330Z,99732.47
2022-08-14T08:52:04.452Z,99717.94
2022-08-14T08:55:06.475Z,99714.41
2022-08-14T08:58:16.675Z,99702.88
2022-08-14T09:01:28.375Z,99708.22
2022-08-14T09:04:37.260Z,99703.38
2022-08-14T09:07:47.556Z,99698.69
2022-08-14T09:10:55.977Z,99695.53
2022-08-14T09:13:58.027Z,99692.53
2022-08-14T09:16:59.997Z,99694.44
2022-08-14T09:20:05.198Z,99690.50
2022-08-14T09:23:08.945Z,99680.16
2022-08-14T09:26:21.517Z,99685.72
2022-08-14T09:29:23.763Z,99677.78
2022-08-14T09:32:58.311Z,99676.63
2022-08-14T09:36:26.165Z,99671.91
2022-08-14T09:39:45.780Z,99664.78
2022-08-14T09:42:57.342Z,99653.81
2022-08-14T09:46:02.582Z,99663.78
2022-08-14T09:49:06.481Z,99668.66
2022-08-14T09:52:32.930Z,99680.13
2022-08-14T09:55:42.371Z,99681.81
2022-08-14T09:58:45.942Z,99679.47
2022-08-14T10:01:53.109Z,99680.44
2022-08-14T10:05:02.270Z,99675.97
2022-08-14T10:08:05.285Z,99666.25
2022-08-14T10:11:19.321Z,99657.06
2022-08-14T10:14:35.989Z,99650.94
2022-08-14T10:17:38.947Z,99647.09
2022-08-14T10:20:51.385Z,99620.97
2022-08-14T10:23:53.158Z,99631.41
2022-08-14T10:27:00.914Z,99616.19
2022-08-14T10:30:04.602Z,99615.78
2022-08-14T10:33:07.135Z,99606.25
2022-08-14T10:36:08.741Z,99600.22
2022-08-14T10:39:25.752Z,99592.78
2022-08-14T10:42:39.512Z,99589.03
2022-08-14T10:45:46.183Z,99581.91
2022-08-14T10:49:04.946Z,99571.47
2022-08-14T10:52:09.858Z,99576.09
2022-08-14T10:55:15.993Z,99567.47
2022-08-14T10:58:29.717Z,99569.81
2022-08-14T11:01:41.726Z,99545.44
2022-08-14T11:04:43.518Z,99531.63
2022-08-14T11:07:55.409Z,99540.66
2022-08-14T11:11:03.533Z,99533.31
2022-08-14T11:14:07.426Z,99545.28
2022-08-14T11:17:12.392Z,99542.13
2022-08-14T11:20:17.278Z,99536.22
2022-08-14T11:23:28.384Z,99532.44
2022-08-14T11:26:40.851Z,99531.59
2022-08-14T11:29:43.925Z,99537.00
2022-08-14T11:32:50.007Z,99536.56
2022-08-14T11:35:51.675Z,99546.38
2022-08-14T11:38:55.230Z,99544.94
2022-08-14T11:41:57.612Z,99542.44
2022-08-14T11:45:04.675Z,99540.97
2022-08-14T11:49:02.737Z,99541.41
2022-08-14T11:51:54.633Z,99537.78
2022-08-14T11:54:58.335Z,99530.97
2022-08-14T11:58:06.604Z,99513.91
2022-08-14T12:01:09.585Z,99514.16
2022-08-14T12:04:32.085Z,99512.47
2022-08-14T12:07:35.115Z,99504.53
2022-08-14T12:10:42.461Z,99501.72
2022-08-14T12:13:45.911Z,99495.28
2022-08-14T12:17:11.822Z,99485.19
2022-08-14T12:20:15.035Z,99479.03
2022-08-14T12:23:25.045Z,99463.63
2022-08-14T12:26:39.049Z,99467.94
2022-08-14T12:29:53.417Z,99467.53
2022-08-14T12:32:56.233Z,99458.38
2022-08-14T12:36:00.493Z,99458.44
2022-08-14T12:39:26.429Z,99448.22
2022-08-14T12:42:36.483Z,99441.91
2022-08-14T12:45:49.999Z,99436.38
2022-08-14T12:48:52.083Z,99426.38
2022-08-14T12:51:59.146Z,99428.72
2022-08-14T12:55:21.073Z,99424.41
2022-08-14T12:58:36.175Z,99416.19
2022-08-14T13:02:01.905Z,99420.97
2022-08-14T13:05:10.357Z,99414.06
2022-08-14T13:08:33.077Z,99403.91
2022-08-14T13:11:46.173Z,99400.28
2022-08-14T13:14:49.661Z,99401.63
2022-08-14T13:17:54.033Z,99386.94
2022-08-14T13:21:01.072Z,99394.59
2022-08-14T13:24:04.848Z,99385.19
2022-08-14T13:27:10.949Z,99388.91
2022-08-14T13:30:14.445Z,99388.28
2022-08-14T13:33:25.749Z,99380.66
2022-08-14T13:36:54.656Z,99384.13
2022-08-14T13:39:56.283Z,99371.22
2022-08-14T13:42:58.548Z,99370.25
2022-08-14T13:46:01.281Z,99359.19
2022-08-14T13:49:02.868Z,99350.56
2022-08-14T13:52:48.003Z,99342.75
2022-08-14T13:55:29.574Z,99341.97
2022-08-14T13:58:35.676Z,99336.53
2022-08-14T14:01:43.716Z,99341.53
2022-08-14T14:04:49.463Z,99335.06
2022-08-14T14:07:53.579Z,99317.84
2022-08-14T14:10:55.985Z,99319.66
2022-08-14T14:14:00.344Z,99313.34
2022-08-14T14:17:02.800Z,99304.94
2022-08-14T14:20:34.391Z,99300.59
2022-08-14T14:23:35.290Z,99301.94
2022-08-14T14:26:38.817Z,99310.53
2022-08-14T14:29:50.544Z,99311.00
2022-08-14T14:33:02.039Z,99300.88
2022-08-14T14:36:07.392Z,99302.66
2022-08-14T14:39:11.094Z,99303.78
2022-08-14T14:42:18.328Z,99300.81
2022-08-14T14:45:31.622Z,99295.00
2022-08-14T14:48:44.100Z,99284.63
2022-08-14T14:51:51.446Z,99291.19
2022-08-14T14:54:55.862Z,99291.06
2022-08-14T14:57:59.637Z,99291.25
2022-08-14T15:01:03.592Z,99285.78
2022-08-14T15:04:20.980Z,99279.38
2022-08-14T15:07:22.704Z,99279.25
2022-08-14T15:10:26.878Z,99269.75
2022-08-14T15:13:33.492Z,99261.28
2022-08-14T15:16:35.222Z,99269.47
2022-08-14T15:19:36.915Z,99265.94
2022-08-14T15:22:39.531Z,99269.72
2022-08-14T15:25:53.051Z,99269.47
2022-08-14T15:29:02.776Z,99262.03
2022-08-14T15:32:08.697Z,99267.78
2022-08-14T15:35:11.926Z,99258.84
2022-08-14T15:38:17.634Z,99264.69
2022-08-14T15:41:19.824Z,99256.81
2022-08-14T15:44:25.859Z,99259.44
2022-08-14T15:47:31.572Z,99262.09
2022-08-14T15:50:34.208Z,99262.59
2022-08-14T15:53:35.792Z,99253.28
2022-08-14T15:56:43.252Z,99259.22
2022-08-14T16:00:03.978Z,99255.03
2022-08-14T16:03:12.578Z,99270.53
2022-08-14T16:06:18.616Z,99264.91
2022-08-14T16:09:20.617Z,99252.97
2022-08-14T16:12:35.718Z,99256.16
2022-08-14T16:15:45.420Z,99260.47
2022-08-14T16:18:58.339Z,99255.59
2022-08-14T16:22:58.580Z,99261.16
2022-08-14T16:25:34.837Z,99254.41
2022-08-14T16:28:37.612Z,99253.50
2022-08-14T16:31:43.041Z,99246.97
2022-08-14T16:34:48.482Z,99250.59
2022-08-14T16:37:52.755Z,99241.78
2022-08-14T16:41:17.046Z,99236.94
2022-08-14T16:44:22.000Z,99240.81
2022-08-14T16:47:35.070Z,99238.44
2022-08-14T16:50:43.125Z,99237.22
2022-08-14T16:53:47.271Z,99237.31
2022-08-14T16:56:48.776Z,99235.88
2022-08-14T16:59:57.221Z,99225.25
2022-08-14T17:03:08.634Z,99222.22
2022-08-14T17:06:33.117Z,99215.56
2022-08-14T17:09:47.137Z,99223.97
2022-08-14T17:12:48.716Z,99222.97
2022-08-14T17:16:12.017Z,99216.50
2022-08-14T17:19:40.053Z,99217.78
2022-08-14T17:23:00.134Z,99213.94
2022-08-14T17:26:01.705Z,99215.44
2022-08-14T17:29:05.865Z,99215.56
2022-08-14T17:32:22.296Z,99226.25
2022-08-14T17:35:57.662Z,99218.28
2022-08-14T17:39:15.508Z,99230.97
2022-08-14T17:42:16.941Z,99219.38
2022-08-14T17:45:41.348Z,99228.72
2022-08-14T17:49:13.970Z,99230.25
2022-08-14T17:52:17.128Z,99227.31
2022-08-14T17:56:01.781Z,99231.41
2022-08-14T17:58:41.992Z,99229.19
2022-08-14T18:01:45.877Z,99236.75
2022-08-14T18:04:48.620Z,99233.41
2022-08-14T18:08:31.288Z,99228.16
2022-08-14T18:11:17.688Z,99228.22
2022-08-14T18:14:32.346Z,99225.31
2022-08-14T18:17:37.505Z,99239.97
2022-08-14T18:21:42.865Z,99241.63
2022-08-14T18:24:01.515Z,99245.84
2022-08-14T18:27:14.863Z,99244.38
2022-08-14T18:30:36.437Z,99238.28
2022-08-14T18:33:51.665Z,99246.25
2022-08-14T18:37:03.743Z,99249.78
2022-08-14T18:40:16.134Z,99252.50
2022-08-14T18:43:45.419Z,99254.53
2022-08-14T18:47:14.730Z,99262.03
2022-08-14T18:50:27.536Z,99268.91
2022-08-14T18:54:01.793Z,99273.66
2022-08-14T18:57:05.555Z,99267.59
2022-08-14T19:00:32.937Z,99268.56
2022-08-14T19:03:36.453Z,99277.44
2022-08-14T19:06:48.969Z,99275.97
2022-08-14T19:10:00.520Z,99280.91
2022-08-14T19:13:05.360Z,99277.47
2022-08-14T19:16:22.921Z,99280.28
2022-08-14T19:19:38.584Z,99270.22
2022-08-14T19:22:40.989Z,99266.34
2022-08-14T19:25:57.536Z,99275.94
2022-08-14T19:28:59.529Z,99276.72
2022-08-14T19:32:04.281Z,99271.66
2022-08-14T19:35:16.633Z,99283.56
2022-08-14T19:38:59.316Z,99274.53
2022-08-14T19:42:00.935Z,99285.38
2022-08-14T19:45:14.427Z,99285.22
2022-08-14T19:48:16.164Z,99295.16
2022-08-14T19:51:17.781Z,99287.94
2022-08-14T19:54:29.307Z,99294.13
2022-08-14T19:57:32.375Z,99297.47
2022-08-14T20:00:33.982Z,99296.59
2022-08-14T20:04:00.491Z,99297.03
2022-08-14T20:07:06.441Z,99308.72
2022-08-14T20:11:08.491Z,99307.03
2022-08-14T20:14:20.628Z,99294.91
2022-08-14T20:17:27.471Z,99303.88
2022-08-14T20:20:31.977Z,99309.47
2022-08-14T20:23:37.948Z,99306.50
2022-08-14T20:26:42.301Z,99312.03
2022-08-14T20:33:47.876Z,99318.41
2022-08-14T20:36:50.333Z,99319.59
2022-08-14T20:39:54.372Z,99333.31
2022-08-14T20:43:15.412Z,99344.53
2022-08-14T20:46:19.369Z,99351.84
2022-08-14T20:49:28.505Z,99348.03
2022-08-14T20:52:30.026Z,99345.41
2022-08-14T20:55:41.482Z,99341.94
2022-08-14T20:58:48.887Z,99340.94
2022-08-14T21:01:59.641Z,99337.56
2022-08-14T21:05:04.523Z,99343.44
2022-08-14T21:08:22.326Z,99336.25
2022-08-14T21:11:28.375Z,99343.16
2022-08-14T21:14:29.855Z,99340.47
2022-08-14T21:17:32.009Z,99348.47
2022-08-14T21:20:40.339Z,99345.19
2022-08-14T21:23:54.985Z,99349.41
2022-08-14T21:27:04.236Z,99342.69
2022-08-14T21:30:11.164Z,99339.63
2022-08-14T21:33:12.672Z,99341.41
2022-08-14T21:36:21.696Z,99335.31
2022-08-14T21:39:24.352Z,99342.50
2022-08-14T21:42:28.076Z,99339.28
2022-08-14T21:45:31.826Z,99339.63
2022-08-14T21:48:37.266Z,99342.09
2022-08-14T21:51:53.229Z,99337.38
2022-08-14T21:54:58.681Z,99346.69
2022-08-14T21:58:52.016Z,99341.97
2022-08-14T22:01:21.719Z,99347.78
2022-08-14T22:07:36.696Z,99355.03
2022-08-14T22:10:44.724Z,99350.81
2022-08-14T22:13:48.933Z,99355.09
2022-08-14T22:17:02.108Z,99368.16
2022-08-14T22:20:16.500Z,99359.31
2022-08-14T22:23:18.653Z,99354.13
2022-08-14T22:26:22.005Z,99352.53
2022-08-14T22:29:23.754Z,99347.47
2022-08-14T22:32:34.952Z,99359.06
2022-08-14T22:35:37.303Z,99361.66
2022-08-14T22:38:50.051Z,99349.97
2022-08-14T22:41:55.839Z,99341.03
2022-08-14T22:44:58.627Z,99346.97
2022-08-14T22:48:01.739Z,99358.81
2022-08-14T22:51:06.492Z,99354.78
2022-08-14T22:54:09.575Z,99357.19
2022-08-14T22:57:37.777Z,99352.81
2022-08-14T23:00:43.835Z,99356.81
2022-08-14T23:03:45.988Z,99356.72
2022-08-14T23:07:02.052Z,99369.75
2022-08-14T23:10:33.566Z,99362.75
2022-08-14T23:13:30.573Z,99363.97
2022-08-14T23:16:33.709Z,99361.06
2022-08-14T23:19:35.602Z,99363.44
2022-08-14T23:22:37.068Z,99358.94
2022-08-14T23:25:59.299Z,99368.59
2022-08-14T23:29:06.916Z,99358.41
2022-08-14T23:32:15.695Z,99368.22
2022-08-14T23:35:26.794Z,99361.81
2022-08-14T23:38:30.494Z,99352.88
2022-08-14T23:41:46.427Z,99354.06
2022-08-14T23:44:53.911Z,99362.50
2022-08-14T23:47:55.334Z,99366.56
2022-08-14T23:50:58.640Z,99357.94
2022-08-14T23:54:01.538Z,99358.97
2022-08-14T23:57:04.256Z,99361.50
